CXA7078 ZSSS-ZSHC
Flight info
| Callsign | CXA7078 |
|---|---|
| Flight time | N/A |
| Altitude | 15700 |
| Route | AND71D AND B221 SUPAR W505 DSH |
| Aircraft | B38M/M-SDE3GHIJ2J3JM1RVWXYZ/LB2D1 |
Departure
| Time | 2026-05-04 15:59 |
|---|---|
| Airport | Shanghai Hongqiao International Airport (ZSSS) |
Arrival
| Time | N/A |
|---|---|
| Airport | Hangzhou Xiaoshan International Airport (ZSHC) |
| Time | Latitude | Longitude | Altitude | Speed | Heading |
|---|---|---|---|---|---|
| 2026-05-04 15:29 | 31.19351 | 121.32861 | 21 ft | 0 kts | 297° |
| 2026-05-04 15:47 | 31.19348 | 121.32867 | 23 ft | 2 kts | 297° |
| 2026-05-04 15:48 | 31.19339 | 121.32887 | 23 ft | 3 kts | 297° |
| 2026-05-04 15:48 | 31.19330 | 121.32908 | 23 ft | 3 kts | 297° |
| 2026-05-04 15:48 | 31.19312 | 121.32949 | 22 ft | 2 kts | 297° |
| 2026-05-04 15:49 | 31.19308 | 121.32958 | 24 ft | 1 kts | 297° |
| 2026-05-04 15:49 | 31.19308 | 121.32959 | 25 ft | 0 kts | 297° |
| 2026-05-04 15:52 | 31.19310 | 121.32954 | 23 ft | 1 kts | 296° |
| 2026-05-04 15:52 | 31.19313 | 121.32932 | 22 ft | 2 kts | 250° |
| 2026-05-04 15:52 | 31.19305 | 121.32927 | 25 ft | 2 kts | 190° |
| 2026-05-04 15:53 | 31.19278 | 121.32936 | 21 ft | 7 kts | 162° |
| 2026-05-04 15:53 | 31.19240 | 121.32965 | 21 ft | 8 kts | 127° |
| 2026-05-04 15:53 | 31.19176 | 121.33009 | 23 ft | 11 kts | 176° |
| 2026-05-04 15:53 | 31.19088 | 121.33011 | 21 ft | 14 kts | 177° |
| 2026-05-04 15:54 | 31.18981 | 121.33017 | 23 ft | 18 kts | 176° |
| 2026-05-04 15:54 | 31.18834 | 121.33025 | 25 ft | 26 kts | 178° |
| 2026-05-04 15:54 | 31.18707 | 121.33048 | 22 ft | 10 kts | 140° |
| 2026-05-04 15:54 | 31.18682 | 121.33096 | 23 ft | 5 kts | 130° |
| 2026-05-04 15:55 | 31.18614 | 121.33120 | 22 ft | 18 kts | 178° |
| 2026-05-04 15:55 | 31.18450 | 121.33128 | 22 ft | 17 kts | 177° |
| 2026-05-04 15:55 | 31.18356 | 121.33148 | 22 ft | 5 kts | 136° |
| 2026-05-04 15:55 | 31.18342 | 121.33208 | 21 ft | 15 kts | 79° |
| 2026-05-04 15:56 | 31.18358 | 121.33322 | 24 ft | 3 kts | 51° |
| 2026-05-04 15:56 | 31.18428 | 121.33321 | 26 ft | 17 kts | 354° |
| 2026-05-04 15:56 | 31.18478 | 121.33318 | 23 ft | 5 kts | 358° |
| 2026-05-04 15:56 | 31.18522 | 121.33316 | 23 ft | 8 kts | 358° |
| 2026-05-04 15:57 | 31.18599 | 121.33313 | 23 ft | 15 kts | 354° |
| 2026-05-04 15:57 | 31.18711 | 121.33307 | 22 ft | 0 kts | 356° |
| 2026-05-04 15:57 | 31.18712 | 121.33307 | 22 ft | 3 kts | 356° |
| 2026-05-04 15:58 | 31.18754 | 121.33305 | 24 ft | 0 kts | 359° |
| 2026-05-04 15:58 | 31.18757 | 121.33305 | 24 ft | 0 kts | 356° |
| 2026-05-04 15:58 | 31.18832 | 121.33302 | 25 ft | 34 kts | 357° |
| 2026-05-04 15:59 | 31.19381 | 121.33270 | 21 ft | 121 kts | 357° |
| 2026-05-04 15:59 | 31.20432 | 121.33208 | 209 ft | 170 kts | 358° |
| 2026-05-04 15:59 | 31.21642 | 121.33107 | 934 ft | 182 kts | 355° |
| 2026-05-04 15:59 | 31.22849 | 121.32901 | 1704 ft | 178 kts | 339° |
| 2026-05-04 16:00 | 31.23867 | 121.32030 | 1840 ft | 192 kts | 308° |
| 2026-05-04 16:00 | 31.24542 | 121.30596 | 2006 ft | 209 kts | 295° |
| 2026-05-04 16:00 | 31.25181 | 121.29025 | 2164 ft | 218 kts | 296° |
| 2026-05-04 16:00 | 31.25856 | 121.27418 | 2304 ft | 222 kts | 296° |
| 2026-05-04 16:01 | 31.26545 | 121.25800 | 2451 ft | 223 kts | 297° |
| 2026-05-04 16:01 | 31.27006 | 121.24727 | 2543 ft | 225 kts | 297° |
| 2026-05-04 16:01 | 31.27533 | 121.22246 | 3332 ft | 254 kts | 263° |
| 2026-05-04 16:01 | 31.26855 | 121.20357 | 4439 ft | 254 kts | 234° |
| 2026-05-04 16:02 | 31.25795 | 121.18672 | 5502 ft | 261 kts | 234° |
| 2026-05-04 16:02 | 31.24724 | 121.16944 | 6578 ft | 264 kts | 234° |
| 2026-05-04 16:02 | 31.22899 | 121.14022 | 8298 ft | 271 kts | 232° |
| 2026-05-04 16:03 | 31.21480 | 121.12575 | 9281 ft | 275 kts | 206° |
| 2026-05-04 16:03 | 31.19629 | 121.12008 | 10210 ft | 281 kts | 182° |
| 2026-05-04 16:03 | 31.17615 | 121.12048 | 10818 ft | 299 kts | 178° |
| 2026-05-04 16:03 | 31.15466 | 121.12141 | 11303 ft | 320 kts | 178° |
| 2026-05-04 16:04 | 31.13175 | 121.12253 | 11824 ft | 336 kts | 177° |
| 2026-05-04 16:04 | 31.08451 | 121.12781 | 13455 ft | 346 kts | 161° |
| 2026-05-04 16:04 | 31.06353 | 121.14162 | 14300 ft | 350 kts | 139° |
| 2026-05-04 16:05 | 31.04749 | 121.16306 | 15099 ft | 355 kts | 126° |
| 2026-05-04 16:05 | 31.03256 | 121.18639 | 15424 ft | 360 kts | 127° |
| 2026-05-04 16:05 | 31.00220 | 121.23432 | 15567 ft | 383 kts | 126° |
| 2026-05-04 16:06 | 30.98611 | 121.25984 | 15584 ft | 397 kts | 126° |
| 2026-05-04 16:06 | 30.93475 | 121.33729 | 15681 ft | 405 kts | 139° |
| 2026-05-04 16:07 | 30.91101 | 121.35471 | 15698 ft | 405 kts | 157° |
| 2026-05-04 16:07 | 30.82778 | 121.37090 | 15701 ft | 406 kts | 174° |
| 2026-05-04 16:08 | 30.79970 | 121.37417 | 15700 ft | 406 kts | 174° |
| 2026-05-04 16:08 | 30.71534 | 121.38321 | 15701 ft | 406 kts | 175° |
| 2026-05-04 16:09 | 30.65909 | 121.38907 | 15703 ft | 406 kts | 175° |
| 2026-05-04 16:09 | 30.60281 | 121.39492 | 15700 ft | 406 kts | 175° |
| 2026-05-04 16:10 | 30.54658 | 121.40076 | 15699 ft | 406 kts | 175° |
| 2026-05-04 16:11 | 30.46219 | 121.40951 | 15699 ft | 406 kts | 175° |
| 2026-05-04 16:11 | 30.43407 | 121.41242 | 15702 ft | 406 kts | 175° |
| 2026-05-04 16:12 | 30.35641 | 121.38430 | 15700 ft | 405 kts | 223° |
| 2026-05-04 16:12 | 30.30551 | 121.30621 | 15702 ft | 406 kts | 236° |
| 2026-05-04 16:13 | 30.27408 | 121.25201 | 15697 ft | 406 kts | 236° |
| 2026-05-04 16:13 | 30.24146 | 121.19882 | 15702 ft | 406 kts | 233° |
| 2026-05-04 16:14 | 30.20807 | 121.14687 | 15703 ft | 396 kts | 233° |
| 2026-05-04 16:14 | 30.17444 | 121.09427 | 13270 ft | 413 kts | 233° |
| 2026-05-04 16:15 | 30.12627 | 121.01897 | 13059 ft | 378 kts | 233° |
| 2026-05-04 16:16 | 30.09504 | 120.97024 | 13001 ft | 377 kts | 233° |
| 2026-05-04 16:16 | 30.04820 | 120.89722 | 12239 ft | 379 kts | 234° |
| 2026-05-04 16:17 | 30.03319 | 120.83986 | 10568 ft | 385 kts | 275° |
| 2026-05-04 16:18 | 30.05907 | 120.75623 | 9991 ft | 362 kts | 292° |
| 2026-05-04 16:18 | 30.06939 | 120.72979 | 9811 ft | 361 kts | 302° |
| 2026-05-04 16:19 | 30.13427 | 120.70353 | 9311 ft | 357 kts | 20° |
| 2026-05-04 16:19 | 30.16957 | 120.74213 | 9337 ft | 358 kts | 58° |
| 2026-05-04 16:20 | 30.20911 | 120.81479 | 8985 ft | 356 kts | 58° |
| 2026-05-04 16:20 | 30.23711 | 120.86175 | 8481 ft | 353 kts | 42° |
| 2026-05-04 16:21 | 30.30472 | 120.86756 | 7142 ft | 346 kts | 332° |
| 2026-05-04 16:22 | 30.34698 | 120.84145 | 5740 ft | 342 kts | 332° |
| 2026-05-04 16:22 | 30.41062 | 120.84916 | 3624 ft | 329 kts | 50° |
| 2026-05-04 16:23 | 30.45954 | 120.89332 | 3326 ft | 286 kts | 355° |
| 2026-05-04 16:24 | 30.47886 | 120.83248 | 3023 ft | 251 kts | 230° |
| 2026-05-04 16:25 | 30.45572 | 120.80217 | 2936 ft | 251 kts | 236° |
| 2026-05-04 16:26 | 30.41481 | 120.74524 | 2935 ft | 211 kts | 229° |
| 2026-05-04 16:26 | 30.38410 | 120.70882 | 2928 ft | 211 kts | 223° |
| 2026-05-04 16:27 | 30.36262 | 120.68570 | 2926 ft | 211 kts | 223° |
| 2026-05-04 16:28 | 30.34121 | 120.64192 | 2937 ft | 211 kts | 244° |
| 2026-05-04 16:28 | 30.32033 | 120.59420 | 2897 ft | 230 kts | 242° |
| 2026-05-04 16:29 | 30.29311 | 120.53252 | 1776 ft | 191 kts | 240° |
| 2026-05-04 16:30 | 30.27696 | 120.49592 | 1095 ft | 162 kts | 240° |
| 2026-05-04 16:31 | 30.26673 | 120.47274 | 671 ft | 164 kts | 242° |
| 2026-05-04 16:31 | 30.25272 | 120.44060 | 97 ft | 134 kts | 243° |